Time;durP1;ratioP1;P1;durP2;ratioP2;P2;SDS_P1;SDS_P2;PMS_P1;PMS_P2;Temp;Humidity;BMP_temperature;BMP_pressure;BME280_temperature;BME280_humidity;BME280_pressure;Samples;Min_cycle;Max_cycle;Signal;HPM_P1;HPM_P2
2023/07/19 00:02:36;;;;;;;9.63;8.63;;;17.50;60.10;;;;;;6262345;28;20242;-80
2023/07/19 00:05:39;;;;;;;9.10;8.40;;;17.50;60.20;;;;;;6266291;28;20244;-80
2023/07/19 00:08:44;;;;;;;10.03;9.03;;;17.50;60.30;;;;;;6255981;28;20316;-81
2023/07/19 00:11:47;;;;;;;10.13;9.20;;;17.50;60.60;;;;;;6284882;28;20295;-80
2023/07/19 00:14:51;;;;;;;9.80;9.07;;;17.40;60.60;;;;;;6281623;28;20261;-81
2023/07/19 00:17:55;;;;;;;11.20;9.97;;;17.40;60.70;;;;;;6249079;28;20242;-82
2023/07/19 00:20:58;;;;;;;11.27;10.23;;;17.40;60.90;;;;;;6269961;28;20247;-79
2023/07/19 00:24:02;;;;;;;9.97;9.17;;;17.40;61.10;;;;;;6264288;28;20810;-80
2023/07/19 00:27:06;;;;;;;10.03;9.03;;;17.40;60.90;;;;;;6273078;28;20378;-80
2023/07/19 00:30:10;;;;;;;9.47;8.73;;;17.30;60.90;;;;;;6264685;28;20320;-80
2023/07/19 00:33:13;;;;;;;10.13;9.13;;;17.20;61.10;;;;;;6234262;28;20837;-81
2023/07/19 00:36:16;;;;;;;9.80;8.90;;;17.30;61.20;;;;;;6258060;28;20233;-80
2023/07/19 00:39:21;;;;;;;9.67;8.80;;;17.20;61.30;;;;;;6240258;28;20239;-78
2023/07/19 00:42:24;;;;;;;8.73;8.03;;;17.20;61.30;;;;;;6255647;28;20234;-81
2023/07/19 00:45:28;;;;;;;8.53;7.83;;;17.20;61.50;;;;;;6247979;28;20824;-81
2023/07/19 00:48:31;;;;;;;9.67;8.77;;;17.20;61.70;;;;;;6234068;28;20727;-80
2023/07/19 00:51:34;;;;;;;9.30;8.53;;;17.20;61.90;;;;;;6218494;28;20246;-79
2023/07/19 00:54:39;;;;;;;7.97;7.27;;;17.10;61.60;;;;;;6239084;28;20239;-79
2023/07/19 00:57:44;;;;;;;6.87;6.27;;;17.10;61.10;;;;;;6247275;28;20234;-80
2023/07/19 01:00:48;;;;;;;6.17;5.37;;;17.10;60.80;;;;;;6242267;28;20250;-80
2023/07/19 01:03:52;;;;;;;5.40;5.00;;;17.00;60.00;;;;;;6232311;28;20790;-78
2023/07/19 01:06:55;;;;;;;5.30;5.00;;;17.00;59.90;;;;;;6247160;28;20246;-80
2023/07/19 01:09:59;;;;;;;5.00;4.80;;;17.00;59.70;;;;;;6256194;28;20352;-80
2023/07/19 01:13:04;;;;;;;4.77;4.47;;;17.00;59.90;;;;;;6235292;28;20342;-79
2023/07/19 01:16:07;;;;;;;5.30;5.00;;;17.00;60.20;;;;;;6239433;28;20238;-83
2023/07/19 01:19:10;;;;;;;4.47;4.27;;;17.00;60.40;;;;;;6236197;28;20364;-79
2023/07/19 01:22:14;;;;;;;4.30;4.10;;;17.00;60.20;;;;;;6246278;28;20250;-80
2023/07/19 01:25:19;;;;;;;4.67;4.37;;;17.00;60.00;;;;;;6246684;28;20237;-81
2023/07/19 01:28:22;;;;;;;4.87;4.47;;;17.00;60.00;;;;;;6243260;28;20324;-80
2023/07/19 01:31:25;;;;;;;4.47;4.13;;;17.00;60.00;;;;;;6244423;28;20617;-80
2023/07/19 01:34:28;;;;;;;3.80;3.60;;;17.00;59.90;;;;;;6261509;28;20234;-80
2023/07/19 01:37:31;;;;;;;4.17;3.87;;;17.00;60.00;;;;;;6247510;28;20373;-80
2023/07/19 01:40:36;;;;;;;4.07;3.87;;;17.00;60.00;;;;;;6233466;28;20234;-80
2023/07/19 01:43:39;;;;;;;3.77;3.53;;;17.00;60.00;;;;;;6236684;28;20381;-79
2023/07/19 01:46:42;;;;;;;3.97;3.77;;;16.90;60.00;;;;;;6232002;28;20245;-81
2023/07/19 01:49:45;;;;;;;3.63;3.43;;;16.80;59.90;;;;;;6237660;28;20234;-78
2023/07/19 01:52:49;;;;;;;3.90;3.60;;;16.80;60.00;;;;;;6239274;28;20239;-80
2023/07/19 01:55:53;;;;;;;4.07;3.87;;;16.70;60.20;;;;;;6233332;28;21018;-80
2023/07/19 01:58:56;;;;;;;3.60;3.50;;;16.60;60.50;;;;;;6237549;28;20239;-80
2023/07/19 02:01:59;;;;;;;4.10;3.90;;;16.60;60.40;;;;;;6241701;28;20245;-80
2023/07/19 02:05:03;;;;;;;3.33;3.23;;;16.60;60.50;;;;;;6234440;28;20262;-81
2023/07/19 02:08:07;;;;;;;3.20;3.10;;;16.50;60.70;;;;;;6248764;28;20238;-81
2023/07/19 02:11:11;;;;;;;3.93;3.73;;;16.50;60.60;;;;;;6208438;28;20232;-82
2023/07/19 02:14:14;;;;;;;3.10;3.10;;;16.50;60.70;;;;;;6221213;28;20242;-79
2023/07/19 02:17:17;;;;;;;3.17;3.07;;;16.40;60.90;;;;;;6227956;28;20250;-80
2023/07/19 02:20:20;;;;;;;3.73;3.53;;;16.40;61.10;;;;;;6230966;28;20280;-79
2023/07/19 02:23:24;;;;;;;3.57;3.40;;;16.40;61.30;;;;;;6240494;28;20735;-81
2023/07/19 02:26:29;;;;;;;3.40;3.30;;;16.40;61.40;;;;;;6228502;28;20243;-77
2023/07/19 02:29:32;;;;;;;3.20;3.10;;;16.30;61.60;;;;;;6232994;28;20255;-82
2023/07/19 02:32:35;;;;;;;3.67;3.50;;;16.30;61.60;;;;;;6227943;28;20318;-81
2023/07/19 02:35:38;;;;;;;3.10;3.00;;;16.30;61.50;;;;;;6235067;28;20371;-81
2023/07/19 02:38:44;;;;;;;3.30;3.20;;;16.20;61.40;;;;;;6244633;28;20296;-81
2023/07/19 02:41:48;;;;;;;3.33;3.23;;;16.20;61.50;;;;;;6232376;28;20231;-81
2023/07/19 02:44:51;;;;;;;3.47;3.37;;;16.20;61.40;;;;;;6222386;28;20242;-81
2023/07/19 02:47:54;;;;;;;4.20;3.90;;;16.20;61.50;;;;;;6239779;28;20242;-79
2023/07/19 02:50:58;;;;;;;3.00;3.00;;;16.30;61.60;;;;;;6252865;28;20244;-80
2023/07/19 02:54:01;;;;;;;3.60;3.40;;;16.40;61.50;;;;;;6245842;28;20235;-80
2023/07/19 02:57:06;;;;;;;3.67;3.57;;;16.40;61.60;;;;;;6227167;28;20238;-81
2023/07/19 03:00:10;;;;;;;3.60;3.50;;;16.40;61.70;;;;;;6249025;28;20234;-80
2023/07/19 03:03:14;;;;;;;4.10;3.80;;;16.50;61.60;;;;;;6246305;28;20323;-79
2023/07/19 03:06:18;;;;;;;3.10;3.10;;;16.50;61.50;;;;;;6249569;28;20881;-79
2023/07/19 03:09:21;;;;;;;4.10;3.80;;;16.50;61.30;;;;;;6242026;28;20855;-78
2023/07/19 03:12:26;;;;;;;3.80;3.50;;;16.50;61.10;;;;;;6236127;28;20251;-81
2023/07/19 03:15:32;;;;;;;3.67;3.40;;;16.60;61.20;;;;;;6263914;28;20234;-82
2023/07/19 03:18:35;;;;;;;3.53;3.23;;;16.60;60.60;;;;;;6259114;28;20969;-81
2023/07/19 03:21:38;;;;;;;3.23;3.13;;;16.70;60.20;;;;;;6225270;28;20243;-81
2023/07/19 03:24:41;;;;;;;3.70;3.40;;;16.80;59.90;;;;;;6241107;28;20265;-82
2023/07/19 03:27:46;;;;;;;3.53;3.33;;;16.90;59.40;;;;;;6249584;28;20237;-80
2023/07/19 03:30:51;;;;;;;3.33;3.13;;;16.90;59.20;;;;;;6232774;28;20246;-78
2023/07/19 03:33:54;;;;;;;4.47;3.57;;;17.00;59.20;;;;;;6249957;28;20237;-81
2023/07/19 03:36:58;;;;;;;3.50;3.30;;;17.00;59.00;;;;;;6237946;28;20234;-80
2023/07/19 03:40:01;;;;;;;3.00;2.80;;;17.00;59.00;;;;;;6244350;28;20731;-78
2023/07/19 03:43:05;;;;;;;2.63;2.63;;;17.00;58.90;;;;;;6225796;28;20798;-83
2023/07/19 03:46:09;;;;;;;2.67;2.57;;;17.00;58.90;;;;;;6249287;28;20295;-78
2023/07/19 03:49:12;;;;;;;3.00;2.90;;;17.00;58.80;;;;;;6243217;28;20225;-81
2023/07/19 03:52:15;;;;;;;3.00;3.00;;;17.00;58.90;;;;;;6231939;28;20239;-79
2023/07/19 03:55:18;;;;;;;3.07;2.97;;;17.20;58.90;;;;;;6225417;28;20236;-80
2023/07/19 03:58:24;;;;;;;5.13;3.70;;;17.20;58.80;;;;;;6235768;28;20301;-78
2023/07/19 04:01:27;;;;;;;3.10;2.90;;;17.30;58.60;;;;;;6243258;28;20234;-81
2023/07/19 04:04:30;;;;;;;3.10;2.90;;;17.40;58.40;;;;;;6237119;28;20626;-78
2023/07/19 04:07:33;;;;;;;2.90;2.70;;;17.50;57.90;;;;;;6239754;28;20378;-78
2023/07/19 04:10:36;;;;;;;4.07;3.70;;;17.60;57.90;;;;;;6230676;28;20227;-80
2023/07/19 04:13:40;;;;;;;3.70;3.40;;;17.80;57.90;;;;;;6229184;28;20318;-78
2023/07/19 04:16:45;;;;;;;3.47;3.20;;;17.80;57.60;;;;;;6242182;28;20255;-78
2023/07/19 04:19:49;;;;;;;3.83;3.53;;;17.90;57.60;;;;;;6243756;28;20314;-80
2023/07/19 04:22:52;;;;;;;4.13;3.23;;;18.00;57.30;;;;;;6233283;28;20250;-78
2023/07/19 04:25:56;;;;;;;3.40;3.20;;;18.00;57.00;;;;;;6236517;28;20238;-80
2023/07/19 04:29:00;;;;;;;3.47;3.17;;;18.00;57.00;;;;;;6234247;28;20401;-78
2023/07/19 04:32:04;;;;;;;3.40;3.30;;;18.00;57.50;;;;;;6242016;28;20247;-80
2023/07/19 04:35:08;;;;;;;3.17;3.07;;;18.00;57.40;;;;;;6243057;28;20263;-80
2023/07/19 04:38:11;;;;;;;4.77;2.83;;;18.00;57.50;;;;;;6227024;28;20836;-80
2023/07/19 04:41:14;;;;;;;3.43;3.30;;;18.00;57.40;;;;;;6234746;28;20369;-81
2023/07/19 04:44:19;;;;;;;3.30;3.07;;;18.00;57.30;;;;;;6246854;28;20321;-79
2023/07/19 04:47:22;;;;;;;3.53;3.23;;;18.10;57.20;;;;;;6231777;28;20235;-79
2023/07/19 04:50:25;;;;;;;3.57;3.27;;;18.10;56.90;;;;;;6224858;28;20234;-80
2023/07/19 04:53:28;;;;;;;3.27;3.10;;;18.10;56.80;;;;;;6227959;28;20323;-78
2023/07/19 04:56:31;;;;;;;3.23;2.97;;;18.10;56.60;;;;;;6233474;28;20235;-80
2023/07/19 04:59:36;;;;;;;3.10;2.90;;;18.10;56.00;;;;;;6246085;28;20309;-77
2023/07/19 05:02:39;;;;;;;2.80;2.70;;;18.20;56.00;;;;;;6249874;28;20242;-81
2023/07/19 05:05:42;;;;;;;3.17;2.63;;;18.30;55.70;;;;;;6244129;28;20230;-79
2023/07/19 05:08:45;;;;;;;2.93;2.73;;;18.40;55.50;;;;;;6233072;28;20258;-81
2023/07/19 05:11:48;;;;;;;3.60;2.57;;;18.50;55.50;;;;;;6234574;28;20243;-81
2023/07/19 05:14:53;;;;;;;3.27;3.07;;;18.50;55.40;;;;;;6235619;28;20370;-79
2023/07/19 05:17:56;;;;;;;3.23;2.90;;;18.50;55.20;;;;;;6232018;28;20306;-81
2023/07/19 05:20:59;;;;;;;3.73;3.10;;;18.50;55.50;;;;;;6223659;28;20231;-80
2023/07/19 05:24:02;;;;;;;3.33;3.20;;;18.60;54.80;;;;;;6240727;28;20246;-80
2023/07/19 05:27:06;;;;;;;3.27;2.97;;;18.70;54.30;;;;;;6238917;28;20722;-81
2023/07/19 05:30:12;;;;;;;3.37;3.07;;;18.70;55.00;;;;;;6230958;28;20231;-81
2023/07/19 05:33:15;;;;;;;3.00;2.80;;;18.70;54.60;;;;;;6236931;28;20232;-80
2023/07/19 05:36:20;;;;;;;4.10;2.80;;;18.90;54.70;;;;;;6221402;28;20741;-80
2023/07/19 05:39:23;;;;;;;3.23;2.83;;;19.00;54.40;;;;;;6228577;28;20228;-80
2023/07/19 05:42:26;;;;;;;3.17;2.97;;;19.10;54.20;;;;;;6225416;28;20710;-80
2023/07/19 05:45:32;;;;;;;3.13;2.93;;;19.10;54.20;;;;;;6240955;28;20256;-79
2023/07/19 05:48:36;;;;;;;3.50;3.20;;;19.30;54.30;;;;;;6230525;28;20688;-79
2023/07/19 05:51:39;;;;;;;3.00;2.90;;;19.40;53.90;;;;;;6236822;28;20634;-80
2023/07/19 05:54:43;;;;;;;3.67;3.20;;;19.50;54.10;;;;;;6239779;28;20589;-80
2023/07/19 05:57:46;;;;;;;3.00;2.90;;;19.60;52.90;;;;;;6239876;28;20239;-80
2023/07/19 06:00:51;;;;;;;2.90;2.70;;;19.60;52.90;;;;;;6242905;28;20239;-80
2023/07/19 06:03:54;;;;;;;3.17;2.87;;;19.70;53.30;;;;;;6251510;28;20797;-78
2023/07/19 06:06:57;;;;;;;2.73;2.63;;;20.00;51.50;;;;;;6249171;28;20245;-81
2023/07/19 06:10:00;;;;;;;3.17;2.97;;;20.00;52.30;;;;;;6233985;28;20257;-79
2023/07/19 06:13:05;;;;;;;2.97;2.77;;;20.10;51.40;;;;;;6237666;28;20360;-81
2023/07/19 06:16:09;;;;;;;2.97;2.67;;;20.30;51.40;;;;;;6226934;28;20246;-81
2023/07/19 06:19:14;;;;;;;2.93;2.67;;;20.50;51.10;;;;;;6232109;28;20260;-79
2023/07/19 06:22:17;;;;;;;3.50;2.83;;;20.60;51.10;;;;;;6235689;28;20262;-78
2023/07/19 06:25:20;;;;;;;2.53;2.43;;;20.70;50.70;;;;;;6228001;28;20254;-80
2023/07/19 06:28:23;;;;;;;4.53;2.83;;;20.80;50.60;;;;;;6232902;28;20284;-78
2023/07/19 06:31:27;;;;;;;3.00;2.80;;;20.90;49.90;;;;;;6231963;28;20285;-81
2023/07/19 06:34:31;;;;;;;3.27;2.77;;;21.10;49.80;;;;;;6266467;28;20232;-80
2023/07/19 06:37:34;;;;;;;3.00;2.73;;;21.20;50.50;;;;;;6272311;28;20270;-81
2023/07/19 06:40:37;;;;;;;2.97;2.77;;;21.10;49.60;;;;;;6278932;28;20742;-78
2023/07/19 06:43:40;;;;;;;3.03;2.83;;;21.10;49.80;;;;;;6273920;28;20264;-82
2023/07/19 06:46:45;;;;;;;3.13;2.90;;;21.30;49.30;;;;;;6269938;28;20238;-78
2023/07/19 06:49:48;;;;;;;5.30;2.83;;;21.40;48.90;;;;;;6273022;28;20235;-81
2023/07/19 06:52:51;;;;;;;4.30;3.00;;;21.50;49.40;;;;;;6276661;28;20278;-79
2023/07/19 06:55:59;;;;;;;3.50;2.93;;;21.60;49.60;;;;;;6291975;28;20264;-79
2023/07/19 06:59:02;;;;;;;3.27;2.97;;;21.70;49.70;;;;;;6270385;28;20330;-78
2023/07/19 07:02:08;;;;;;;3.57;2.90;;;21.60;49.40;;;;;;6278095;28;20244;-79
2023/07/19 07:05:11;;;;;;;4.53;2.80;;;22.00;49.80;;;;;;6275236;28;20246;-78
2023/07/19 07:08:15;;;;;;;4.23;3.00;;;22.50;48.50;;;;;;6283169;28;20374;-80
2023/07/19 07:11:18;;;;;;;3.53;3.10;;;23.00;48.20;;;;;;6285466;28;20928;-76
2023/07/19 07:14:21;;;;;;;4.53;3.10;;;23.10;48.00;;;;;;6281584;28;20241;-80
2023/07/19 07:17:26;;;;;;;2.93;2.67;;;23.40;48.10;;;;;;6272178;28;20242;-79
2023/07/19 07:20:29;;;;;;;3.33;3.00;;;23.30;47.10;;;;;;6269206;28;20232;-79
2023/07/19 07:23:32;;;;;;;4.93;3.03;;;23.30;47.60;;;;;;6288551;28;20242;-79
2023/07/19 07:26:35;;;;;;;5.53;3.27;;;23.20;48.00;;;;;;6279624;28;20348;-79
2023/07/19 07:29:41;;;;;;;3.40;3.10;;;23.20;48.20;;;;;;6282135;28;20241;-80
2023/07/19 07:32:46;;;;;;;3.40;3.20;;;23.10;48.50;;;;;;6261128;28;20241;-81
2023/07/19 07:35:49;;;;;;;3.50;3.20;;;23.30;49.00;;;;;;6282454;28;20240;-82
2023/07/19 07:38:52;;;;;;;3.53;3.40;;;23.10;48.70;;;;;;6279711;28;20237;-82
2023/07/19 07:41:55;;;;;;;3.80;3.50;;;23.10;48.00;;;;;;6269297;28;20900;-81
2023/07/19 07:44:58;;;;;;;3.53;3.00;;;23.30;48.30;;;;;;6282269;28;20866;-80
2023/07/19 07:48:03;;;;;;;3.47;3.17;;;23.10;49.20;;;;;;6281458;28;20907;-79
2023/07/19 07:51:06;;;;;;;3.27;3.17;;;23.30;49.30;;;;;;6278013;28;20242;-77
2023/07/19 07:54:09;;;;;;;3.20;2.90;;;23.30;49.00;;;;;;6276638;28;20560;-80
2023/07/19 07:57:12;;;;;;;4.90;3.00;;;23.30;47.90;;;;;;6266693;28;20470;-78
2023/07/19 08:00:18;;;;;;;3.23;3.00;;;23.40;48.30;;;;;;6272171;28;20238;-77
2023/07/19 08:03:23;;;;;;;3.10;2.90;;;23.60;47.70;;;;;;6256215;28;20242;-81
2023/07/19 08:06:26;;;;;;;3.30;3.00;;;23.90;47.80;;;;;;6263658;28;20256;-80
2023/07/19 08:09:29;;;;;;;3.23;2.90;;;23.70;47.40;;;;;;6280237;28;20246;-80
2023/07/19 08:12:32;;;;;;;3.53;3.30;;;24.10;47.40;;;;;;6274169;28;20288;-80
2023/07/19 08:15:36;;;;;;;3.17;2.77;;;24.20;46.60;;;;;;6273349;28;20280;-78
2023/07/19 08:18:40;;;;;;;3.83;2.83;;;24.00;46.00;;;;;;6241117;28;20717;-79
2023/07/19 08:21:43;;;;;;;2.93;2.77;;;23.60;46.50;;;;;;6246284;28;20305;-77
2023/07/19 08:24:46;;;;;;;4.60;3.20;;;23.60;46.50;;;;;;6283477;28;20248;-79
2023/07/19 08:27:49;;;;;;;3.90;3.60;;;23.60;46.80;;;;;;6271367;28;20234;-78
2023/07/19 08:30:53;;;;;;;3.27;3.17;;;23.60;47.50;;;;;;6283311;28;20239;-77
2023/07/19 08:33:57;;;;;;;3.53;3.17;;;23.60;47.20;;;;;;6270912;28;20264;-75
2023/07/19 08:37:01;;;;;;;3.13;2.97;;;23.80;46.70;;;;;;6274120;28;20230;-75
2023/07/19 08:40:05;;;;;;;3.50;3.20;;;23.80;47.30;;;;;;6270138;28;20246;-77
2023/07/19 08:43:09;;;;;;;2.93;2.73;;;23.80;47.70;;;;;;6285446;28;20416;-78
2023/07/19 08:46:15;;;;;;;3.70;3.00;;;24.00;46.80;;;;;;6277965;28;20238;-81
2023/07/19 08:49:20;;;;;;;3.23;2.93;;;24.10;47.30;;;;;;6271270;28;20303;-78
2023/07/19 08:52:24;;;;;;;3.00;2.80;;;24.40;47.10;;;;;;6274027;28;20242;-81
2023/07/19 08:55:27;;;;;;;3.47;2.83;;;24.40;46.70;;;;;;6277303;28;20238;-79
2023/07/19 08:58:30;;;;;;;2.87;2.70;;;24.70;46.70;;;;;;6253565;28;20666;-77
2023/07/19 09:01:33;;;;;;;4.07;2.90;;;25.00;45.80;;;;;;6267167;28;20683;-76
2023/07/19 09:04:39;;;;;;;3.60;2.57;;;25.00;45.10;;;;;;6278481;28;20242;-76
2023/07/19 09:07:46;;;;;;;3.80;3.30;;;25.00;45.70;;;;;;6269971;28;20266;-81
2023/07/19 09:10:51;;;;;;;3.07;2.87;;;25.20;45.70;;;;;;6276045;28;20234;-80
2023/07/19 09:13:56;;;;;;;3.13;2.73;;;25.10;45.50;;;;;;6278369;28;20237;-81
2023/07/19 09:16:59;;;;;;;3.43;3.03;;;25.30;45.10;;;;;;6282004;28;20246;-80
2023/07/19 09:20:06;;;;;;;3.67;3.37;;;25.50;44.80;;;;;;6282202;28;20716;-79
2023/07/19 09:23:09;;;;;;;3.07;2.90;;;25.50;44.90;;;;;;6284529;28;20245;-79
2023/07/19 09:26:13;;;;;;;3.00;2.90;;;25.00;45.00;;;;;;6274428;28;20249;-81
2023/07/19 09:29:16;;;;;;;3.30;3.10;;;25.00;44.80;;;;;;6268842;28;20242;-81
2023/07/19 09:32:19;;;;;;;2.63;2.53;;;25.10;45.10;;;;;;6272067;28;20242;-78
2023/07/19 09:35:28;;;;;;;2.70;2.50;;;25.30;44.90;;;;;;6284724;28;20226;-76
2023/07/19 09:38:31;;;;;;;3.17;2.87;;;25.20;45.10;;;;;;6296461;28;20265;-78
2023/07/19 09:41:35;;;;;;;3.53;3.10;;;25.20;45.50;;;;;;6278938;28;20242;-78
2023/07/19 09:44:39;;;;;;;3.67;2.97;;;25.20;46.10;;;;;;6272068;28;20237;-76
2023/07/19 09:47:43;;;;;;;4.97;2.90;;;25.50;44.90;;;;;;6272176;28;20238;-81
2023/07/19 09:50:50;;;;;;;3.43;2.70;;;25.60;45.40;;;;;;6273109;28;20225;-82
2023/07/19 09:53:54;;;;;;;2.80;2.60;;;25.40;45.30;;;;;;6268298;28;20380;-81
2023/07/19 09:56:57;;;;;;;2.93;2.83;;;25.50;45.40;;;;;;6259610;28;20234;-81
2023/07/19 10:00:02;;;;;;;5.60;3.27;;;25.30;44.80;;;;;;6262370;28;20324;-79
2023/07/19 10:03:08;;;;;;;4.60;2.90;;;25.50;44.00;;;;;;6258148;28;20238;-80
2023/07/19 10:06:14;;;;;;;3.30;3.00;;;25.80;44.10;;;;;;6247903;28;20243;-82
2023/07/19 10:09:36;;;;;;;3.10;3.00;;;25.50;44.40;;;;;;6259091;28;20242;-80
2023/07/19 10:12:40;;;;;;;4.67;3.03;;;25.20;45.20;;;;;;6254250;28;20232;-79
2023/07/19 10:15:52;;;;;;;3.93;3.03;;;25.40;44.90;;;;;;6261497;28;20235;-81
2023/07/19 10:19:12;;;;;;;3.47;3.17;;;25.50;45.10;;;;;;6245461;28;20353;-81
2023/07/19 10:22:17;;;;;;;2.93;2.73;;;25.60;44.80;;;;;;6258681;28;20241;-83
2023/07/19 10:25:25;;;;;;;3.83;3.63;;;25.80;45.80;;;;;;6255917;28;20321;-80
2023/07/19 10:28:30;;;;;;;3.33;3.17;;;25.70;45.30;;;;;;6236997;28;20234;-78
2023/07/19 10:31:33;;;;;;;3.73;3.37;;;25.60;44.70;;;;;;6261875;28;20254;-78
2023/07/19 10:34:37;;;;;;;3.67;3.37;;;25.80;44.60;;;;;;6253946;28;20245;-81
2023/07/19 10:37:54;;;;;;;3.27;3.10;;;25.80;44.30;;;;;;6240160;28;20231;-78
2023/07/19 10:40:58;;;;;;;3.90;2.93;;;25.90;44.60;;;;;;6228077;28;20332;-79
2023/07/19 10:44:01;;;;;;;3.40;2.80;;;26.20;44.10;;;;;;6245604;28;20243;-80
2023/07/19 10:47:08;;;;;;;3.70;3.50;;;25.80;44.80;;;;;;6245060;28;20939;-78
2023/07/19 10:50:12;;;;;;;4.77;3.13;;;25.90;44.80;;;;;;6245918;28;20694;-77
2023/07/19 10:53:17;;;;;;;3.43;3.23;;;26.00;44.00;;;;;;6225420;28;20629;-80
2023/07/19 10:56:20;;;;;;;3.13;2.80;;;26.00;43.90;;;;;;6223001;28;20324;-82
2023/07/19 10:59:23;;;;;;;3.63;3.13;;;26.10;43.90;;;;;;6244253;28;20237;-79
2023/07/19 11:02:26;;;;;;;3.10;2.90;;;26.30;43.30;;;;;;6229079;28;20243;-78
2023/07/19 11:05:30;;;;;;;3.50;3.37;;;25.80;43.30;;;;;;6235491;28;20317;-81
2023/07/19 11:08:34;;;;;;;3.13;2.93;;;25.80;43.90;;;;;;6235376;28;20234;-80
2023/07/19 11:11:39;;;;;;;3.60;3.40;;;26.20;43.80;;;;;;6221234;28;20239;-81
2023/07/19 11:14:44;;;;;;;3.20;3.00;;;26.20;43.40;;;;;;6222827;28;20227;-82
2023/07/19 11:17:48;;;;;;;3.20;2.87;;;26.40;43.90;;;;;;6237271;28;20827;-77
2023/07/19 11:20:51;;;;;;;3.67;3.37;;;26.10;44.10;;;;;;6232012;28;20244;-77
2023/07/19 11:23:56;;;;;;;3.70;3.50;;;26.20;43.70;;;;;;6239650;28;20907;-76
2023/07/19 11:26:59;;;;;;;3.00;2.90;;;26.40;44.00;;;;;;6234994;28;20329;-79
2023/07/19 11:30:03;;;;;;;3.13;2.90;;;26.40;43.70;;;;;;6233008;28;20299;-79
2023/07/19 11:33:08;;;;;;;3.67;3.47;;;26.40;44.20;;;;;;6249141;28;20246;-76
2023/07/19 11:36:12;;;;;;;3.90;3.60;;;26.20;43.90;;;;;;6229657;28;20243;-78
2023/07/19 11:39:18;;;;;;;4.43;3.27;;;26.20;43.50;;;;;;6237805;28;20316;-77
2023/07/19 11:42:40;;;;;;;4.73;3.53;;;26.10;43.30;;;;;;6239125;28;20392;-78
2023/07/19 11:45:44;;;;;;;3.73;3.17;;;25.90;44.10;;;;;;6260715;28;20742;-78
2023/07/19 11:48:47;;;;;;;3.20;3.00;;;26.00;43.50;;;;;;6234552;28;20230;-78
2023/07/19 11:51:50;;;;;;;3.03;2.93;;;26.00;43.60;;;;;;6254651;28;20237;-77
2023/07/19 11:54:55;;;;;;;3.40;3.10;;;26.00;44.40;;;;;;6247398;28;20237;-76
2023/07/19 11:58:02;;;;;;;3.67;3.20;;;26.20;44.50;;;;;;6255319;28;20733;-79
2023/07/19 12:01:06;;;;;;;3.47;3.03;;;26.40;44.20;;;;;;6240295;28;20417;-77
2023/07/19 12:04:09;;;;;;;3.03;2.93;;;26.60;44.10;;;;;;6226394;28;20251;-78
2023/07/19 12:07:12;;;;;;;3.23;2.93;;;26.70;43.60;;;;;;6226495;28;20614;-78
2023/07/19 12:10:18;;;;;;;2.60;2.50;;;26.80;43.10;;;;;;6237619;28;20238;-76
2023/07/19 12:13:22;;;;;;;5.23;3.10;;;26.70;43.90;;;;;;6245594;28;20721;-78
2023/07/19 12:16:25;;;;;;;3.20;3.10;;;26.60;44.20;;;;;;6228966;28;20278;-78
2023/07/19 12:19:29;;;;;;;5.87;3.30;;;26.40;44.20;;;;;;6245924;28;20226;-81
2023/07/19 12:22:35;;;;;;;2.90;2.70;;;26.30;44.50;;;;;;6233642;28;20242;-79
2023/07/19 12:25:40;;;;;;;3.40;3.10;;;26.20;44.60;;;;;;6238132;28;20234;-80
2023/07/19 12:28:43;;;;;;;3.40;3.03;;;26.50;44.30;;;;;;6242093;28;20230;-78
2023/07/19 12:31:46;;;;;;;5.23;2.93;;;26.50;44.20;;;;;;6233055;28;20242;-79
2023/07/19 12:34:50;;;;;;;3.43;3.23;;;26.40;44.40;;;;;;6238820;28;20254;-78
2023/07/19 12:37:53;;;;;;;3.27;3.07;;;26.30;44.40;;;;;;6245926;28;20325;-77
2023/07/19 12:40:58;;;;;;;6.10;3.20;;;26.20;44.40;;;;;;6226957;28;20314;-78
2023/07/19 12:44:02;;;;;;;3.90;3.60;;;26.30;44.40;;;;;;6243902;28;20247;-79
2023/07/19 12:47:07;;;;;;;3.17;3.07;;;26.40;44.50;;;;;;6242215;28;20861;-79
2023/07/19 12:50:10;;;;;;;3.87;3.57;;;26.60;44.20;;;;;;6237005;28;20813;-79
2023/07/19 12:53:13;;;;;;;4.73;3.20;;;26.80;44.80;;;;;;6247415;28;20737;-78
2023/07/19 12:56:18;;;;;;;3.37;3.17;;;26.80;44.20;;;;;;6233137;28;20257;-76
2023/07/19 12:59:23;;;;;;;3.60;3.40;;;26.80;44.50;;;;;;6243691;28;20690;-77
2023/07/19 13:02:26;;;;;;;2.97;2.77;;;27.00;44.10;;;;;;6246431;28;20250;-78
2023/07/19 13:05:30;;;;;;;3.17;3.10;;;27.10;43.80;;;;;;6234429;28;20301;-78
2023/07/19 13:08:34;;;;;;;3.10;2.90;;;27.30;43.40;;;;;;6233435;28;20321;-77
2023/07/19 13:11:39;;;;;;;3.47;3.20;;;27.50;43.70;;;;;;6235473;28;20308;-80
2023/07/19 13:14:42;;;;;;;3.40;3.10;;;27.20;43.40;;;;;;6228380;28;20589;-78
2023/07/19 13:17:45;;;;;;;3.27;3.07;;;27.10;43.00;;;;;;6240748;28;20743;-79
2023/07/19 13:20:49;;;;;;;3.47;3.27;;;27.20;43.60;;;;;;6238884;28;20235;-77
2023/07/19 13:23:52;;;;;;;3.87;3.53;;;27.00;43.50;;;;;;6240263;28;20321;-78
2023/07/19 13:26:57;;;;;;;3.50;3.20;;;26.90;43.20;;;;;;6252080;28;20249;-78
2023/07/19 13:30:00;;;;;;;4.00;3.77;;;26.70;43.50;;;;;;6235928;28;20238;-77
2023/07/19 13:33:04;;;;;;;3.57;3.27;;;26.50;44.00;;;;;;6229479;28;20246;-76
2023/07/19 13:36:07;;;;;;;4.03;3.50;;;26.20;44.60;;;;;;6236452;28;20700;-76
2023/07/19 13:39:13;;;;;;;3.73;3.50;;;26.20;44.70;;;;;;6239078;28;20703;-77
2023/07/19 13:42:17;;;;;;;3.67;3.37;;;26.30;44.60;;;;;;6238473;28;20325;-77
2023/07/19 13:45:20;;;;;;;3.43;3.27;;;26.40;44.40;;;;;;6248198;28;20238;-77
2023/07/19 13:48:24;;;;;;;3.73;3.43;;;26.80;43.60;;;;;;6235896;28;20321;-79
2023/07/19 13:51:27;;;;;;;4.37;4.00;;;27.00;43.80;;;;;;6241709;28;20246;-77
2023/07/19 13:54:30;;;;;;;3.43;3.13;;;27.00;43.80;;;;;;6233880;28;20258;-79
2023/07/19 13:57:35;;;;;;;3.93;3.57;;;27.10;44.00;;;;;;6243344;28;20313;-78
2023/07/19 14:00:38;;;;;;;3.40;3.30;;;26.80;44.00;;;;;;6233395;28;20348;-77
2023/07/19 14:03:41;;;;;;;3.53;3.27;;;26.50;43.90;;;;;;6245836;28;20246;-77
2023/07/19 14:06:45;;;;;;;3.40;3.20;;;26.60;44.60;;;;;;6243219;28;20237;-77
2023/07/19 14:09:48;;;;;;;3.43;3.13;;;26.80;44.90;;;;;;6241316;28;20274;-76
2023/07/19 14:12:52;;;;;;;3.57;3.37;;;26.90;44.70;;;;;;6231902;28;20317;-79
2023/07/19 14:15:58;;;;;;;3.10;3.00;;;26.90;44.20;;;;;;6244156;28;20303;-79
2023/07/19 14:19:04;;;;;;;3.73;2.93;;;26.90;44.10;;;;;;6230053;28;20317;-77
2023/07/19 14:22:08;;;;;;;3.50;3.10;;;26.90;43.70;;;;;;6232860;28;20313;-78
2023/07/19 14:25:11;;;;;;;3.37;3.17;;;26.90;43.60;;;;;;6244215;28;20906;-78
2023/07/19 14:28:16;;;;;;;3.60;3.30;;;26.80;43.70;;;;;;6239322;28;20714;-79
2023/07/19 14:31:19;;;;;;;3.03;2.83;;;26.90;43.60;;;;;;6219430;28;20255;-78
2023/07/19 14:34:25;;;;;;;3.50;3.20;;;26.90;44.00;;;;;;6228279;28;20234;-78
2023/07/19 14:37:29;;;;;;;4.63;2.57;;;26.60;44.60;;;;;;6235252;28;20257;-79
2023/07/19 14:40:32;;;;;;;3.43;3.17;;;26.40;45.00;;;;;;6239248;28;20285;-79
2023/07/19 14:43:37;;;;;;;3.20;3.07;;;26.50;45.20;;;;;;6231423;28;20238;-77
2023/07/19 14:46:41;;;;;;;4.47;3.10;;;26.50;45.10;;;;;;6216049;28;20314;-78
2023/07/19 14:49:44;;;;;;;3.40;3.20;;;26.50;45.40;;;;;;6230910;28;20238;-79
2023/07/19 14:52:48;;;;;;;3.70;3.37;;;26.60;45.40;;;;;;6232257;28;20312;-80
2023/07/19 14:55:55;;;;;;;3.20;3.07;;;27.00;44.70;;;;;;6238108;28;20238;-79
2023/07/19 14:58:59;;;;;;;5.07;2.93;;;26.90;45.00;;;;;;6237837;28;20233;-76
2023/07/19 15:02:03;;;;;;;3.33;3.03;;;26.60;45.10;;;;;;6231958;28;20321;-78
2023/07/19 15:05:20;;;;;;;3.43;3.23;;;26.70;45.30;;;;;;6246965;28;20241;-78
2023/07/19 15:08:23;;;;;;;3.17;2.97;;;27.10;45.20;;;;;;6243146;28;20381;-79
2023/07/19 15:11:29;;;;;;;6.90;3.07;;;27.30;44.40;;;;;;6227526;28;20231;-79
2023/07/19 15:14:36;;;;;;;3.40;3.10;;;27.50;44.20;;;;;;6233718;28;20719;-79
2023/07/19 15:17:39;;;;;;;3.07;2.87;;;27.60;43.70;;;;;;6228652;28;20662;-77
2023/07/19 15:20:43;;;;;;;2.87;2.63;;;27.70;43.40;;;;;;6250731;28;20242;-79
2023/07/19 15:23:47;;;;;;;3.30;2.90;;;27.90;43.80;;;;;;6249874;28;20235;-77
2023/07/19 15:26:53;;;;;;;4.23;3.00;;;28.00;43.30;;;;;;6234370;28;20373;-77
2023/07/19 15:29:59;;;;;;;2.60;2.53;;;27.80;43.70;;;;;;6235343;28;20239;-75
2023/07/19 15:33:02;;;;;;;5.13;2.53;;;27.80;43.50;;;;;;6241077;28;20622;-78
2023/07/19 15:36:06;;;;;;;3.73;2.50;;;27.80;43.50;;;;;;6236408;28;20235;-77
2023/07/19 15:39:09;;;;;;;2.60;2.50;;;27.70;43.50;;;;;;6235329;28;20293;-76
2023/07/19 15:42:12;;;;;;;3.03;2.83;;;27.50;43.80;;;;;;6246884;28;20316;-78
2023/07/19 15:45:19;;;;;;;2.40;2.30;;;27.20;44.20;;;;;;6238590;28;20705;-77
2023/07/19 15:48:22;;;;;;;4.90;3.27;;;26.60;45.10;;;;;;6226062;28;20243;-78
2023/07/19 15:51:25;;;;;;;3.90;3.17;;;26.10;45.40;;;;;;6240179;28;20265;-78
2023/07/19 15:54:29;;;;;;;2.60;2.47;;;25.80;45.80;;;;;;6234670;28;20231;-78
2023/07/19 15:57:33;;;;;;;3.23;3.07;;;25.80;45.90;;;;;;6252224;28;20231;-79